createdAt,value
2017-09-20T00:00:25.457Z,0
2017-09-20T00:01:34.105Z,0
2017-09-20T00:02:43.071Z,0
2017-09-20T00:03:52.067Z,0
2017-09-20T00:05:01.032Z,0
2017-09-20T00:06:10.002Z,0
2017-09-20T00:07:19.328Z,0
2017-09-20T00:08:28.600Z,0
2017-09-20T00:09:37.615Z,0
2017-09-20T00:10:46.271Z,0
2017-09-20T00:11:54.933Z,0
2017-09-20T00:13:03.925Z,0
2017-09-20T00:14:12.887Z,0
2017-09-20T00:15:22.166Z,0
2017-09-20T00:16:31.449Z,0
2017-09-20T00:17:40.417Z,0
2017-09-20T00:18:49.404Z,0
2017-09-20T00:19:58.369Z,0
2017-09-20T00:21:07.386Z,0
2017-09-20T00:22:16.049Z,0
2017-09-20T00:23:25.640Z,0
2017-09-20T00:24:34.908Z,0
2017-09-20T00:25:43.890Z,0
2017-09-20T00:26:52.858Z,0
2017-09-20T00:28:01.824Z,0
2017-09-20T00:29:11.120Z,0
2017-09-20T00:30:20.404Z,0
2017-09-20T00:31:29.403Z,0
2017-09-20T00:32:38.683Z,0
2017-09-20T00:33:47.970Z,0
2017-09-20T00:34:56.632Z,0
2017-09-20T00:36:05.597Z,0
2017-09-20T00:37:14.250Z,0
2017-09-20T00:38:23.228Z,0
2017-09-20T00:39:32.186Z,0
2017-09-20T00:40:41.463Z,0
2017-09-20T00:41:50.100Z,0
2017-09-20T00:42:58.749Z,0
2017-09-20T00:44:07.708Z,0
2017-09-20T00:45:16.354Z,0
2017-09-20T00:46:25.014Z,0
2017-09-20T00:47:34.308Z,0
2017-09-20T00:48:43.270Z,0
2017-09-20T00:49:51.951Z,0
2017-09-20T00:51:01.252Z,0
2017-09-20T00:52:09.909Z,0
2017-09-20T00:53:18.559Z,0
2017-09-20T00:54:27.213Z,0
2017-09-20T00:55:36.183Z,0
2017-09-20T00:56:44.849Z,0
2017-09-20T00:57:53.833Z,0
2017-09-20T00:59:02.507Z,0
2017-09-20T01:00:11.150Z,0
2017-09-20T01:01:20.430Z,0
2017-09-20T01:02:29.772Z,0
2017-09-20T01:03:38.760Z,0
2017-09-20T01:04:47.734Z,0
2017-09-20T01:05:56.724Z,0
2017-09-20T01:07:05.997Z,0
2017-09-20T01:08:15.293Z,0
2017-09-20T01:09:24.271Z,0
2017-09-20T01:10:32.912Z,0
2017-09-20T01:11:41.900Z,0
2017-09-20T01:12:50.878Z,0
2017-09-20T01:14:00.470Z,0
2017-09-20T01:15:09.467Z,0
2017-09-20T01:16:19.718Z,0
2017-09-20T01:17:28.693Z,0
2017-09-20T01:18:37.674Z,0
2017-09-20T01:19:46.636Z,0
2017-09-20T01:20:55.281Z,0
2017-09-20T01:22:04.584Z,0
2017-09-20T01:23:14.172Z,0
2017-09-20T01:24:23.476Z,0
2017-09-20T01:25:32.452Z,0
2017-09-20T01:26:41.420Z,0
2017-09-20T01:27:50.071Z,0
2017-09-20T01:28:59.391Z,0
2017-09-20T01:30:08.360Z,0
2017-09-20T01:31:17.322Z,0
2017-09-20T01:32:26.298Z,0
2017-09-20T01:33:35.292Z,0
2017-09-20T01:34:44.268Z,0
2017-09-20T01:35:53.227Z,0
2017-09-20T01:37:02.529Z,0
2017-09-20T01:38:12.145Z,0
2017-09-20T01:39:21.116Z,0
2017-09-20T01:40:30.755Z,0
2017-09-20T01:41:40.039Z,0
2017-09-20T01:42:49.014Z,0
2017-09-20T01:43:57.989Z,0
2017-09-20T01:45:06.645Z,0
2017-09-20T01:46:15.941Z,0
2017-09-20T01:47:24.605Z,0
2017-09-20T01:48:33.902Z,0
2017-09-20T01:49:43.183Z,0
2017-09-20T01:50:52.161Z,0
2017-09-20T01:52:01.138Z,0
2017-09-20T01:53:10.102Z,0
2017-09-20T01:54:19.094Z,0
2017-09-20T01:55:28.072Z,0
2017-09-20T01:56:36.741Z,0
2017-09-20T01:57:45.699Z,0
2017-09-20T01:58:55.289Z,0
2017-09-20T02:00:04.265Z,0
2017-09-20T02:01:13.542Z,0
2017-09-20T02:02:23.159Z,0
2017-09-20T02:03:31.808Z,0
2017-09-20T02:04:40.766Z,0
2017-09-20T02:05:49.741Z,0
2017-09-20T02:06:58.700Z,0
2017-09-20T02:08:07.347Z,0
2017-09-20T02:09:16.958Z,0
2017-09-20T02:10:25.932Z,0
2017-09-20T02:11:34.918Z,0
2017-09-20T02:12:44.180Z,0
2017-09-20T02:13:53.147Z,0
2017-09-20T02:15:02.107Z,0
2017-09-20T02:16:11.376Z,0
2017-09-20T02:17:20.025Z,0
2017-09-20T02:18:29.300Z,0
2017-09-20T02:19:38.594Z,0
2017-09-20T02:20:47.876Z,0
2017-09-20T02:21:57.144Z,0
2017-09-20T02:23:06.118Z,0
2017-09-20T02:24:15.262Z,0
2017-09-20T02:25:24.220Z,0
2017-09-20T02:26:32.885Z,0
2017-09-20T02:27:42.160Z,0
2017-09-20T02:28:50.818Z,0
2017-09-20T02:30:00.111Z,0
2017-09-20T02:31:09.392Z,0
2017-09-20T02:32:18.366Z,0
2017-09-20T02:33:27.370Z,0
2017-09-20T02:34:36.339Z,0
2017-09-20T02:35:45.308Z,0
2017-09-20T02:36:54.610Z,0
2017-09-20T02:38:03.870Z,0
2017-09-20T02:39:13.170Z,0
2017-09-20T02:40:22.142Z,0
2017-09-20T02:41:31.737Z,0
2017-09-20T02:42:40.697Z,0
2017-09-20T02:43:49.353Z,0
2017-09-20T02:44:58.326Z,0
2017-09-20T02:46:07.960Z,0
2017-09-20T02:47:17.240Z,0
2017-09-20T02:48:26.285Z,0
2017-09-20T02:49:35.351Z,0
2017-09-20T02:50:44.002Z,0
2017-09-20T02:51:53.292Z,0
2017-09-20T02:53:02.260Z,0
2017-09-20T02:54:11.239Z,0
2017-09-20T02:55:20.202Z,0
2017-09-20T02:56:29.222Z,0
2017-09-20T02:57:38.193Z,0
2017-09-20T02:58:47.935Z,0
2017-09-20T02:59:57.213Z,0
2017-09-20T03:01:06.175Z,0
2017-09-20T03:02:15.470Z,0
2017-09-20T03:03:24.126Z,0
2017-09-20T03:04:33.079Z,0
2017-09-20T03:05:42.040Z,0
2017-09-20T03:06:51.643Z,0
2017-09-20T03:08:00.957Z,0
2017-09-20T03:09:09.934Z,0
2017-09-20T03:10:18.906Z,0
2017-09-20T03:11:27.890Z,0
2017-09-20T03:12:36.861Z,0
2017-09-20T03:13:45.527Z,0
2017-09-20T03:14:54.184Z,0
2017-09-20T03:16:03.214Z,0
2017-09-20T03:17:12.192Z,0
2017-09-20T03:18:21.476Z,0
2017-09-20T03:19:30.433Z,0
2017-09-20T03:20:39.406Z,0
2017-09-20T03:21:48.066Z,0
2017-09-20T03:22:57.081Z,0
2017-09-20T03:24:06.367Z,0
2017-09-20T03:25:15.341Z,0
2017-09-20T03:26:24.311Z,0
2017-09-20T03:27:33.262Z,0
2017-09-20T03:28:42.226Z,0
2017-09-20T03:29:51.208Z,0
2017-09-20T03:30:59.861Z,0
2017-09-20T03:32:08.859Z,0
2017-09-20T03:33:18.451Z,0
2017-09-20T03:34:27.103Z,0
2017-09-20T03:35:36.707Z,0
2017-09-20T03:36:45.989Z,0
2017-09-20T03:37:54.946Z,0
2017-09-20T03:39:04.232Z,0
2017-09-20T03:40:13.206Z,0
2017-09-20T03:41:22.510Z,0
2017-09-20T03:42:31.797Z,0
2017-09-20T03:43:40.770Z,0
2017-09-20T03:44:50.045Z,0
2017-09-20T03:45:59.008Z,0
2017-09-20T03:47:08.012Z,0
2017-09-20T03:48:16.967Z,0
2017-09-20T03:49:26.261Z,0
2017-09-20T03:50:36.489Z,0
2017-09-20T03:51:45.458Z,0
2017-09-20T03:52:55.088Z,0
2017-09-20T03:54:04.049Z,0
2017-09-20T03:55:12.704Z,0
2017-09-20T03:56:21.658Z,0
2017-09-20T03:57:30.648Z,0
2017-09-20T03:58:39.293Z,0
2017-09-20T03:59:48.280Z,0
2017-09-20T04:00:58.237Z,0
2017-09-20T04:02:07.219Z,0
2017-09-20T04:03:16.173Z,0
2017-09-20T04:04:25.227Z,0
2017-09-20T04:05:34.514Z,0
2017-09-20T04:06:43.801Z,0
2017-09-20T04:07:52.774Z,0
2017-09-20T04:09:01.731Z,0
2017-09-20T04:10:10.693Z,0
2017-09-20T04:11:19.339Z,0
2017-09-20T04:12:27.991Z,0
2017-09-20T04:13:37.255Z,0
2017-09-20T04:14:46.555Z,0
2017-09-20T04:15:55.840Z,0
2017-09-20T04:17:04.494Z,0
2017-09-20T04:18:13.453Z,0
2017-09-20T04:19:22.106Z,0
2017-09-20T04:20:31.072Z,0
2017-09-20T04:21:40.036Z,0
2017-09-20T04:22:48.704Z,0
2017-09-20T04:23:58.003Z,0
2017-09-20T04:25:07.629Z,0
2017-09-20T04:26:16.260Z,0
2017-09-20T04:27:24.939Z,0
2017-09-20T04:28:33.954Z,0
2017-09-20T04:29:43.244Z,0
2017-09-20T04:30:52.231Z,0
2017-09-20T04:32:00.879Z,0
2017-09-20T04:33:10.176Z,0
2017-09-20T04:34:19.162Z,0
2017-09-20T04:35:28.121Z,0
2017-09-20T04:36:37.428Z,0
2017-09-20T04:37:47.010Z,0
2017-09-20T04:38:55.675Z,0
2017-09-20T04:40:04.383Z,0
2017-09-20T04:41:13.346Z,0
2017-09-20T04:42:22.652Z,0
2017-09-20T04:43:31.929Z,0
2017-09-20T04:44:41.217Z,0
2017-09-20T04:45:50.273Z,0
2017-09-20T04:47:00.580Z,0
2017-09-20T04:48:09.345Z,0
2017-09-20T04:49:18.092Z,0
2017-09-20T04:50:27.181Z,0
2017-09-20T04:51:36.462Z,0
2017-09-20T04:52:46.534Z,0
2017-09-20T04:53:55.837Z,0
2017-09-20T04:55:05.205Z,0
2017-09-20T04:56:14.255Z,0
2017-09-20T04:57:23.602Z,0
2017-09-20T04:58:32.276Z,0
2017-09-20T04:59:41.303Z,0
2017-09-20T05:00:50.307Z,0
2017-09-20T05:01:59.273Z,0
2017-09-20T05:03:08.560Z,0
2017-09-20T05:04:17.666Z,0
2017-09-20T05:05:27.320Z,0
2017-09-20T05:06:36.313Z,0
2017-09-20T05:07:45.303Z,0
2017-09-20T05:08:53.983Z,0
2017-09-20T05:10:03.578Z,0
2017-09-20T05:11:12.566Z,0
2017-09-20T05:12:21.556Z,4
2017-09-20T05:13:30.627Z,8
2017-09-20T05:14:39.696Z,12
2017-09-20T05:15:49.031Z,8
2017-09-20T05:16:58.054Z,12
2017-09-20T05:18:07.048Z,12
2017-09-20T05:19:15.740Z,12
2017-09-20T05:20:24.739Z,16
2017-09-20T05:21:34.715Z,16
2017-09-20T05:22:43.793Z,16
2017-09-20T05:23:53.446Z,20
2017-09-20T05:25:02.760Z,20
2017-09-20T05:26:11.449Z,24
2017-09-20T05:27:21.074Z,24
2017-09-20T05:28:30.046Z,20
2017-09-20T05:29:39.029Z,20
2017-09-20T05:30:48.953Z,20
2017-09-20T05:31:58.566Z,16
2017-09-20T05:33:07.533Z,16
2017-09-20T05:34:16.832Z,16
2017-09-20T05:35:25.877Z,16
2017-09-20T05:36:35.509Z,16
2017-09-20T05:37:44.491Z,16
2017-09-20T05:38:53.489Z,16
2017-09-20T05:40:02.475Z,20
2017-09-20T05:41:11.458Z,24
2017-09-20T05:42:20.770Z,28
2017-09-20T05:43:30.095Z,36
2017-09-20T05:44:39.075Z,40
2017-09-20T05:45:48.129Z,44
2017-09-20T05:46:56.806Z,52
2017-09-20T05:48:05.555Z,52
2017-09-20T05:49:14.568Z,48
2017-09-20T05:50:23.593Z,48
2017-09-20T05:51:32.593Z,44
2017-09-20T05:52:41.884Z,44
2017-09-20T05:53:50.858Z,44
2017-09-20T05:54:59.837Z,52
2017-09-20T05:56:09.137Z,56
2017-09-20T05:57:18.807Z,64
2017-09-20T05:58:27.508Z,60
2017-09-20T05:59:36.167Z,72
2017-09-20T06:00:45.167Z,96
2017-09-20T06:01:54.150Z,68
2017-09-20T06:03:03.765Z,64
2017-09-20T06:04:13.063Z,76
2017-09-20T06:05:22.063Z,72
2017-09-20T06:06:31.353Z,108
2017-09-20T06:07:40.664Z,108
2017-09-20T06:08:49.648Z,80
2017-09-20T06:09:58.307Z,88
2017-09-20T06:11:07.594Z,80
2017-09-20T06:12:16.619Z,80
2017-09-20T06:13:25.277Z,88
2017-09-20T06:14:34.895Z,80
2017-09-20T06:15:44.204Z,76
2017-09-20T06:16:53.537Z,96
2017-09-20T06:18:03.207Z,108
2017-09-20T06:19:11.881Z,80
2017-09-20T06:20:21.491Z,88
2017-09-20T06:21:30.779Z,112
2017-09-20T06:22:40.085Z,108
2017-09-20T06:23:49.376Z,112
2017-09-20T06:24:58.667Z,136
2017-09-20T06:26:07.947Z,176
2017-09-20T06:27:16.626Z,208
2017-09-20T06:28:25.995Z,232
2017-09-20T06:29:34.999Z,248
2017-09-20T06:30:43.978Z,272
2017-09-20T06:31:52.962Z,292
2017-09-20T06:33:01.977Z,288
2017-09-20T06:34:11.017Z,292
2017-09-20T06:35:20.002Z,304
2017-09-20T06:36:29.951Z,312
2017-09-20T06:37:39.249Z,324
2017-09-20T06:38:47.918Z,340
2017-09-20T06:39:56.911Z,392
2017-09-20T06:41:05.911Z,416
2017-09-20T06:42:14.578Z,456
2017-09-20T06:43:23.891Z,432
2017-09-20T06:44:33.533Z,364
2017-09-20T06:45:42.843Z,316
2017-09-20T06:46:51.509Z,352
2017-09-20T06:48:00.504Z,336
2017-09-20T06:49:10.122Z,304
2017-09-20T06:50:19.128Z,280
2017-09-20T06:51:29.116Z,248
2017-09-20T06:52:38.105Z,216
2017-09-20T06:53:47.724Z,188
2017-09-20T06:54:56.760Z,196
2017-09-20T06:56:06.094Z,224
2017-09-20T06:57:15.081Z,240
2017-09-20T06:58:23.787Z,228
2017-09-20T06:59:32.783Z,224
2017-09-20T07:00:41.452Z,244
2017-09-20T07:01:51.127Z,256
2017-09-20T07:02:59.832Z,276
2017-09-20T07:04:08.864Z,296
2017-09-20T07:05:17.896Z,312
2017-09-20T07:06:27.240Z,320
2017-09-20T07:07:36.545Z,368
2017-09-20T07:08:46.190Z,340
2017-09-20T07:09:54.865Z,344
2017-09-20T07:11:03.849Z,360
2017-09-20T07:12:12.511Z,376
2017-09-20T07:13:21.859Z,396
2017-09-20T07:14:30.548Z,384
2017-09-20T07:15:39.607Z,392
2017-09-20T07:16:48.906Z,384
2017-09-20T07:17:57.911Z,328
2017-09-20T07:19:06.912Z,352
2017-09-20T07:20:15.959Z,328
2017-09-20T07:21:24.986Z,332
2017-09-20T07:22:34.315Z,320
2017-09-20T07:23:43.061Z,376
2017-09-20T07:24:52.368Z,436
2017-09-20T07:26:01.345Z,536
2017-09-20T07:27:10.404Z,600
2017-09-20T07:28:20.681Z,760
2017-09-20T07:29:29.353Z,632
2017-09-20T07:30:38.031Z,568
2017-09-20T07:31:47.375Z,456
2017-09-20T07:32:56.070Z,444
2017-09-20T07:34:05.082Z,492
2017-09-20T07:35:13.724Z,504
2017-09-20T07:36:23.038Z,528
2017-09-20T07:37:32.033Z,532
2017-09-20T07:38:40.697Z,608
2017-09-20T07:39:49.672Z,756
2017-09-20T07:40:58.962Z,820
2017-09-20T07:42:08.573Z,884
2017-09-20T07:43:18.202Z,856
2017-09-20T07:44:27.562Z,916
2017-09-20T07:45:36.284Z,1480
2017-09-20T07:46:45.268Z,2396
2017-09-20T07:47:54.275Z,2780
2017-09-20T07:49:03.263Z,2940
2017-09-20T07:50:12.658Z,2668
2017-09-20T07:51:21.947Z,2720
2017-09-20T07:52:31.247Z,2080
2017-09-20T07:53:40.242Z,1960
2017-09-20T07:54:49.279Z,2228
2017-09-20T07:55:57.994Z,2424
2017-09-20T07:57:06.977Z,2440
2017-09-20T07:58:16.629Z,2784
2017-09-20T07:59:25.650Z,2668
2017-09-20T08:00:34.663Z,2444
2017-09-20T08:01:43.978Z,1952
2017-09-20T08:02:53.277Z,3136
2017-09-20T08:04:02.570Z,3264
2017-09-20T08:05:11.576Z,2632
2017-09-20T08:06:20.885Z,2600
2017-09-20T08:07:29.573Z,2344
2017-09-20T08:08:38.549Z,3780
2017-09-20T08:09:47.525Z,3728
2017-09-20T08:10:57.155Z,4332
2017-09-20T08:12:05.853Z,4108
2017-09-20T08:13:14.868Z,1884
2017-09-20T08:14:23.892Z,1272
2017-09-20T08:15:32.656Z,1004
2017-09-20T08:16:41.493Z,1016
2017-09-20T08:17:50.357Z,1024
2017-09-20T08:18:59.336Z,828
2017-09-20T08:20:08.082Z,900
2017-09-20T08:21:17.089Z,912
2017-09-20T08:22:26.741Z,912
2017-09-20T08:23:35.400Z,820
2017-09-20T08:24:44.444Z,1040
2017-09-20T08:25:53.786Z,1432
2017-09-20T08:27:02.777Z,1416
2017-09-20T08:28:11.453Z,1408
2017-09-20T08:29:20.530Z,2064
2017-09-20T08:30:29.641Z,1640
2017-09-20T08:31:38.357Z,1716
2017-09-20T08:32:47.077Z,1648
2017-09-20T08:33:56.060Z,1360
2017-09-20T08:35:05.076Z,1116
2017-09-20T08:36:14.061Z,804
2017-09-20T08:37:22.753Z,752
2017-09-20T08:38:31.754Z,820
2017-09-20T08:39:40.737Z,848
2017-09-20T08:40:49.399Z,896
2017-09-20T08:41:58.717Z,1136
2017-09-20T08:43:07.683Z,1028
2017-09-20T08:44:16.976Z,748
2017-09-20T08:45:26.270Z,852
2017-09-20T08:46:34.950Z,1184
2017-09-20T08:47:44.227Z,1604
2017-09-20T08:48:52.911Z,2072
2017-09-20T08:50:02.207Z,1776
2017-09-20T08:51:11.198Z,1852
2017-09-20T08:52:20.498Z,2372
2017-09-20T08:53:29.160Z,2684
2017-09-20T08:54:37.821Z,2992
2017-09-20T08:55:47.113Z,2868
2017-09-20T08:56:57.099Z,3604
2017-09-20T08:58:06.162Z,3544
2017-09-20T08:59:15.164Z,2716
2017-09-20T09:00:24.466Z,2924
2017-09-20T09:01:33.562Z,3096
2017-09-20T09:02:42.593Z,3396
2017-09-20T09:03:51.567Z,4284
2017-09-20T09:05:00.235Z,3952
2017-09-20T09:06:08.918Z,3272
2017-09-20T09:07:18.236Z,2972
2017-09-20T09:08:26.898Z,3128
2017-09-20T09:09:35.891Z,2700
2017-09-20T09:10:45.198Z,2608
2017-09-20T09:11:54.195Z,2436
2017-09-20T09:13:03.495Z,2448
2017-09-20T09:14:12.481Z,2144
2017-09-20T09:15:21.485Z,2040
2017-09-20T09:16:30.813Z,1860
2017-09-20T09:17:40.126Z,2160
2017-09-20T09:18:48.786Z,2224
2017-09-20T09:19:58.094Z,2412
2017-09-20T09:21:06.745Z,2532
2017-09-20T09:22:15.428Z,2372
2017-09-20T09:23:24.714Z,2636
2017-09-20T09:24:33.396Z,2372
2017-09-20T09:25:42.703Z,2588
2017-09-20T09:26:51.781Z,2884
2017-09-20T09:28:01.120Z,3000
2017-09-20T09:29:10.783Z,3240
2017-09-20T09:30:19.767Z,2844
2017-09-20T09:31:28.742Z,2656
2017-09-20T09:32:38.240Z,3304
2017-09-20T09:33:46.983Z,3344
2017-09-20T09:34:55.674Z,2968
2017-09-20T09:36:04.674Z,2884
2017-09-20T09:37:13.714Z,2744
2017-09-20T09:38:23.330Z,2588
2017-09-20T09:39:32.307Z,2584
2017-09-20T09:40:41.614Z,3172
2017-09-20T09:41:50.612Z,2992
2017-09-20T09:42:59.659Z,3076
2017-09-20T09:44:08.670Z,2928
2017-09-20T09:45:17.736Z,2940
2017-09-20T09:46:26.726Z,2672
2017-09-20T09:47:36.356Z,2660
2017-09-20T09:48:45.031Z,2276
2017-09-20T09:49:54.325Z,1980
2017-09-20T09:51:03.323Z,1748
2017-09-20T09:52:11.977Z,1608
2017-09-20T09:53:21.603Z,1632
2017-09-20T09:54:30.925Z,1872
2017-09-20T09:55:39.932Z,1632
2017-09-20T09:56:48.923Z,1520
2017-09-20T09:57:57.920Z,1816
2017-09-20T09:59:07.531Z,2068
2017-09-20T10:00:16.526Z,2512
2017-09-20T10:01:25.530Z,2708
2017-09-20T10:02:34.570Z,2604
2017-09-20T10:03:43.244Z,2624
2017-09-20T10:04:52.537Z,2504
2017-09-20T10:06:01.257Z,2108
2017-09-20T10:07:09.934Z,1964
2017-09-20T10:08:19.564Z,2540
2017-09-20T10:09:28.593Z,2068
2017-09-20T10:10:37.616Z,1424
2017-09-20T10:11:46.602Z,1164
2017-09-20T10:12:55.904Z,836
2017-09-20T10:14:04.584Z,1020
2017-09-20T10:15:13.625Z,1372
2017-09-20T10:16:23.288Z,2056
2017-09-20T10:17:32.340Z,1860
2017-09-20T10:18:41.669Z,1836
2017-09-20T10:19:50.663Z,1304
2017-09-20T10:20:59.647Z,1268
2017-09-20T10:22:08.320Z,1592
2017-09-20T10:23:17.316Z,1748
2017-09-20T10:24:26.425Z,1756
2017-09-20T10:25:35.455Z,1844
2017-09-20T10:26:44.561Z,1948
2017-09-20T10:27:53.857Z,2108
2017-09-20T10:29:02.889Z,1796
2017-09-20T10:30:11.879Z,2364
2017-09-20T10:31:20.906Z,2612
2017-09-20T10:32:30.018Z,2376
2017-09-20T10:33:38.768Z,2312
2017-09-20T10:34:47.757Z,2344
2017-09-20T10:35:56.434Z,2552
2017-09-20T10:37:05.438Z,2780
2017-09-20T10:38:14.758Z,2668
2017-09-20T10:39:23.745Z,2500
2017-09-20T10:40:32.443Z,2488
2017-09-20T10:41:41.778Z,2264
2017-09-20T10:42:50.769Z,1896
2017-09-20T10:43:59.435Z,1836
2017-09-20T10:45:08.107Z,1664
2017-09-20T10:46:16.803Z,1280
2017-09-20T10:47:25.474Z,1604
2017-09-20T10:48:34.768Z,1600
2017-09-20T10:49:43.753Z,2004
2017-09-20T10:50:52.492Z,1976
2017-09-20T10:52:01.786Z,1708
2017-09-20T10:53:11.098Z,1480
2017-09-20T10:54:20.093Z,1456
2017-09-20T10:55:29.092Z,1364
2017-09-20T10:56:39.012Z,1604
2017-09-20T10:57:48.663Z,1736
2017-09-20T10:58:57.978Z,1900
2017-09-20T11:00:07.279Z,1816
2017-09-20T11:01:16.577Z,1804
2017-09-20T11:02:25.247Z,1868
2017-09-20T11:03:34.228Z,1792
2017-09-20T11:04:44.480Z,1752
2017-09-20T11:05:53.159Z,1960
2017-09-20T11:07:02.175Z,2208
2017-09-20T11:08:10.876Z,2568
2017-09-20T11:09:20.185Z,2492
2017-09-20T11:10:29.184Z,2652
2017-09-20T11:11:38.176Z,2360
2017-09-20T11:12:47.483Z,1804
2017-09-20T11:13:57.119Z,1460
2017-09-20T11:15:06.093Z,1208
2017-09-20T11:16:15.114Z,1092
2017-09-20T11:17:24.427Z,1444
2017-09-20T11:18:33.412Z,2000
2017-09-20T11:19:42.413Z,2480
2017-09-20T11:20:51.739Z,2868
2017-09-20T11:22:01.387Z,2512
2017-09-20T11:23:10.392Z,1996
2017-09-20T11:24:20.003Z,1720
2017-09-20T11:25:28.677Z,1684
2017-09-20T11:26:37.974Z,1924
2017-09-20T11:27:47.280Z,2172
2017-09-20T11:28:56.584Z,2180
2017-09-20T11:30:05.601Z,2336
2017-09-20T11:31:14.261Z,2448
2017-09-20T11:32:23.559Z,2512
2017-09-20T11:33:32.946Z,2888
2017-09-20T11:34:41.621Z,2816
2017-09-20T11:35:50.610Z,2456
2017-09-20T11:36:59.587Z,2328
2017-09-20T11:38:09.208Z,2088
2017-09-20T11:39:18.201Z,2180
2017-09-20T11:40:27.202Z,2192
2017-09-20T11:41:35.877Z,2040
2017-09-20T11:42:44.551Z,2232
2017-09-20T11:43:53.852Z,2156
2017-09-20T11:45:02.849Z,2368
2017-09-20T11:46:11.823Z,2196
2017-09-20T11:47:20.810Z,2192
2017-09-20T11:48:30.117Z,2224
2017-09-20T11:49:40.056Z,2156
2017-09-20T11:50:49.113Z,1612
2017-09-20T11:51:57.805Z,1444
2017-09-20T11:53:06.500Z,1332
2017-09-20T11:54:15.496Z,1440
2017-09-20T11:55:24.492Z,1408
2017-09-20T11:56:33.809Z,1404
2017-09-20T11:57:42.795Z,1472
2017-09-20T11:58:52.097Z,1560
2017-09-20T12:00:01.409Z,1660
2017-09-20T12:01:10.409Z,1520
2017-09-20T12:02:19.091Z,1316
2017-09-20T12:03:28.075Z,1152
2017-09-20T12:04:37.443Z,1092
2017-09-20T12:05:46.135Z,1072
2017-09-20T12:06:55.493Z,888
2017-09-20T12:08:04.187Z,876
2017-09-20T12:09:13.486Z,1044
2017-09-20T12:10:22.158Z,1084
2017-09-20T12:11:31.445Z,1048
2017-09-20T12:12:40.113Z,1000
2017-09-20T12:13:48.793Z,824
2017-09-20T12:14:58.415Z,728
2017-09-20T12:16:08.044Z,696
2017-09-20T12:17:17.039Z,744
2017-09-20T12:18:25.725Z,824
2017-09-20T12:19:34.388Z,1096
2017-09-20T12:20:43.707Z,1124
2017-09-20T12:21:52.391Z,964
2017-09-20T12:23:01.715Z,840
2017-09-20T12:24:11.012Z,920
2017-09-20T12:25:19.991Z,1068
2017-09-20T12:26:28.991Z,1308
2017-09-20T12:27:38.314Z,1632
2017-09-20T12:28:46.986Z,1752
2017-09-20T12:29:56.004Z,1756
2017-09-20T12:31:05.360Z,1804
2017-09-20T12:32:14.680Z,1912
2017-09-20T12:33:24.104Z,1952
2017-09-20T12:34:33.147Z,1972
2017-09-20T12:35:42.486Z,2096
2017-09-20T12:36:51.512Z,1984
2017-09-20T12:38:00.222Z,1612
2017-09-20T12:39:09.219Z,1484
2017-09-20T12:40:17.983Z,1228
2017-09-20T12:41:26.992Z,1064
2017-09-20T12:42:35.972Z,984
2017-09-20T12:43:44.656Z,956
2017-09-20T12:44:53.962Z,964
2017-09-20T12:46:03.587Z,916
2017-09-20T12:47:12.571Z,880
2017-09-20T12:48:22.223Z,884
2017-09-20T12:49:31.224Z,764
2017-09-20T12:50:39.896Z,812
2017-09-20T12:51:49.195Z,800
2017-09-20T12:52:58.208Z,660
2017-09-20T12:54:07.835Z,716
2017-09-20T12:55:16.518Z,664
2017-09-20T12:56:25.880Z,768
2017-09-20T12:57:35.179Z,1032
2017-09-20T12:58:43.858Z,1080
2017-09-20T12:59:52.529Z,928
2017-09-20T13:01:01.204Z,860
2017-09-20T13:02:10.216Z,796
2017-09-20T13:03:19.859Z,780
2017-09-20T13:04:28.851Z,764
2017-09-20T13:05:38.170Z,752
2017-09-20T13:06:46.890Z,748
2017-09-20T13:07:55.911Z,748
2017-09-20T13:09:05.286Z,740
2017-09-20T13:10:13.974Z,744
2017-09-20T13:11:22.959Z,708
2017-09-20T13:12:31.654Z,656
2017-09-20T13:13:40.338Z,700
2017-09-20T13:14:49.344Z,748
2017-09-20T13:15:58.364Z,728
2017-09-20T13:17:07.345Z,756
2017-09-20T13:18:17.621Z,772
2017-09-20T13:19:26.603Z,840
2017-09-20T13:20:36.207Z,828
2017-09-20T13:21:45.186Z,860
2017-09-20T13:22:53.890Z,828
2017-09-20T13:24:03.203Z,808
2017-09-20T13:25:12.182Z,796
2017-09-20T13:26:20.853Z,796
2017-09-20T13:27:30.170Z,812
2017-09-20T13:28:38.828Z,792
2017-09-20T13:29:47.510Z,792
2017-09-20T13:30:57.124Z,796
2017-09-20T13:32:06.103Z,828
2017-09-20T13:33:15.085Z,824
2017-09-20T13:34:24.072Z,768
2017-09-20T13:35:32.737Z,744
2017-09-20T13:36:42.051Z,704
2017-09-20T13:37:50.745Z,688
2017-09-20T13:39:00.065Z,708
2017-09-20T13:40:09.374Z,740
2017-09-20T13:41:18.675Z,752
2017-09-20T13:42:27.669Z,932
2017-09-20T13:43:36.677Z,1112
2017-09-20T13:44:45.342Z,1320
2017-09-20T13:45:54.333Z,1332
2017-09-20T13:47:03.324Z,1248
2017-09-20T13:48:12.339Z,1128
2017-09-20T13:49:21.339Z,1220
2017-09-20T13:50:30.663Z,1324
2017-09-20T13:51:40.351Z,1472
2017-09-20T13:52:49.345Z,1624
2017-09-20T13:53:58.020Z,1580
2017-09-20T13:55:07.035Z,1388
2017-09-20T13:56:16.365Z,1304
2017-09-20T13:57:25.076Z,1452
2017-09-20T13:58:34.379Z,1736
2017-09-20T13:59:43.354Z,1732
2017-09-20T14:00:52.348Z,1592
2017-09-20T14:02:01.968Z,1348
2017-09-20T14:03:10.957Z,1096
2017-09-20T14:04:20.258Z,1076
2017-09-20T14:05:29.883Z,1108
2017-09-20T14:06:38.887Z,1172
2017-09-20T14:07:47.547Z,1092
2017-09-20T14:08:56.224Z,960
2017-09-20T14:10:05.583Z,836
2017-09-20T14:11:14.585Z,844
2017-09-20T14:12:23.902Z,832
2017-09-20T14:13:33.199Z,792
2017-09-20T14:14:41.886Z,748
2017-09-20T14:15:51.177Z,708
2017-09-20T14:17:00.828Z,716
2017-09-20T14:18:10.455Z,768
2017-09-20T14:19:19.439Z,856
2017-09-20T14:20:29.071Z,964
2017-09-20T14:21:38.069Z,1044
2017-09-20T14:22:47.366Z,1120
2017-09-20T14:23:56.659Z,1204
2017-09-20T14:25:05.984Z,1296
2017-09-20T14:26:14.958Z,1216
2017-09-20T14:27:23.929Z,1316
2017-09-20T14:28:33.251Z,1140
2017-09-20T14:29:42.545Z,1060
2017-09-20T14:30:52.486Z,1040
2017-09-20T14:32:01.464Z,1036
2017-09-20T14:33:10.241Z,956
2017-09-20T14:34:18.979Z,844
2017-09-20T14:35:28.205Z,804
2017-09-20T14:36:36.885Z,812
2017-09-20T14:37:45.575Z,856
2017-09-20T14:38:54.901Z,856
2017-09-20T14:40:03.583Z,924
2017-09-20T14:41:12.564Z,964
2017-09-20T14:42:21.597Z,1012
2017-09-20T14:43:30.887Z,1056
2017-09-20T14:44:39.888Z,1116
2017-09-20T14:45:49.187Z,1240
2017-09-20T14:46:57.895Z,1348
2017-09-20T14:48:07.201Z,1332
2017-09-20T14:49:16.213Z,1268
2017-09-20T14:50:25.542Z,1280
2017-09-20T14:51:34.530Z,1280
2017-09-20T14:52:43.546Z,1120
2017-09-20T14:53:52.218Z,1152
2017-09-20T14:55:00.887Z,1184
2017-09-20T14:56:09.878Z,1216
2017-09-20T14:57:18.549Z,1244
2017-09-20T14:58:27.860Z,1216
2017-09-20T14:59:36.878Z,1216
2017-09-20T15:00:45.888Z,1232
2017-09-20T15:01:54.888Z,1228
2017-09-20T15:03:04.213Z,1188
2017-09-20T15:04:13.828Z,1160
2017-09-20T15:05:22.518Z,1152
2017-09-20T15:06:31.493Z,1124
2017-09-20T15:07:40.821Z,1148
2017-09-20T15:08:49.488Z,1208
2017-09-20T15:09:58.488Z,1232
2017-09-20T15:11:07.164Z,1256
2017-09-20T15:12:16.465Z,1196
2017-09-20T15:13:25.163Z,1104
2017-09-20T15:14:33.865Z,1096
2017-09-20T15:15:43.154Z,1140
2017-09-20T15:16:51.845Z,1152
2017-09-20T15:18:00.849Z,1140
2017-09-20T15:19:10.469Z,1144
2017-09-20T15:20:19.452Z,1056
2017-09-20T15:21:28.131Z,836
2017-09-20T15:22:36.815Z,780
2017-09-20T15:23:45.536Z,816
2017-09-20T15:24:54.544Z,824
2017-09-20T15:26:03.561Z,732
2017-09-20T15:27:12.265Z,700
2017-09-20T15:28:20.956Z,716
2017-09-20T15:29:29.958Z,788
2017-09-20T15:30:39.883Z,776
2017-09-20T15:31:49.487Z,772
2017-09-20T15:32:58.462Z,728
2017-09-20T15:34:07.139Z,636
2017-09-20T15:35:16.170Z,584
2017-09-20T15:36:25.159Z,540
2017-09-20T15:37:34.158Z,516
2017-09-20T15:38:42.838Z,504
2017-09-20T15:39:52.147Z,496
2017-09-20T15:41:01.130Z,488
2017-09-20T15:42:10.108Z,492
2017-09-20T15:43:19.105Z,504
2017-09-20T15:44:28.157Z,532
2017-09-20T15:45:37.169Z,508
2017-09-20T15:46:45.901Z,516
2017-09-20T15:47:55.214Z,524
2017-09-20T15:49:04.533Z,540
2017-09-20T15:50:13.524Z,556
2017-09-20T15:51:23.157Z,588
2017-09-20T15:52:32.148Z,596
2017-09-20T15:53:41.131Z,584
2017-09-20T15:54:50.196Z,568
2017-09-20T15:55:59.214Z,592
2017-09-20T15:57:08.206Z,604
2017-09-20T15:58:17.195Z,564
2017-09-20T15:59:26.269Z,524
2017-09-20T16:00:35.611Z,484
2017-09-20T16:01:44.964Z,448
2017-09-20T16:02:53.719Z,440